sensor_id;sensor_type;location;lat;lon;timestamp;P1;P2;P0
78842;PMS5003;70542;53.774;-0.352;2023-07-09T00:03:25;26;26;
78842;PMS5003;70542;53.774;-0.352;2023-07-09T00:09:12;28;28;
78842;PMS5003;70542;53.774;-0.352;2023-07-09T00:14:57;16;16;
78842;PMS5003;70542;53.774;-0.352;2023-07-09T00:20:36;21;21;
78842;PMS5003;70542;53.774;-0.352;2023-07-09T00:26:14;29;29;
78842;PMS5003;70542;53.774;-0.352;2023-07-09T00:31:54;20;20;
78842;PMS5003;70542;53.774;-0.352;2023-07-09T00:37:33;19;19;
78842;PMS5003;70542;53.774;-0.352;2023-07-09T00:43:13;26;26;
78842;PMS5003;70542;53.774;-0.352;2023-07-09T00:48:56;21;21;
78842;PMS5003;70542;53.774;-0.352;2023-07-09T00:54:41;21;21;
78842;PMS5003;70542;53.774;-0.352;2023-07-09T01:00:24;20;20;
78842;PMS5003;70542;53.774;-0.352;2023-07-09T01:06:06;16;15;
78842;PMS5003;70542;53.774;-0.352;2023-07-09T01:11:45;24;24;
78842;PMS5003;70542;53.774;-0.352;2023-07-09T01:17:24;27;27;
78842;PMS5003;70542;53.774;-0.352;2023-07-09T01:23:04;32;27;
78842;PMS5003;70542;53.774;-0.352;2023-07-09T01:28:43;20;20;
78842;PMS5003;70542;53.774;-0.352;2023-07-09T01:34:22;27;27;
78842;PMS5003;70542;53.774;-0.352;2023-07-09T01:40:01;25;25;
78842;PMS5003;70542;53.774;-0.352;2023-07-09T01:45:40;18;18;
78842;PMS5003;70542;53.774;-0.352;2023-07-09T01:51:18;25;25;
78842;PMS5003;70542;53.774;-0.352;2023-07-09T02:02:52;20;18;
78842;PMS5003;70542;53.774;-0.352;2023-07-09T02:08:31;18;18;
78842;PMS5003;70542;53.774;-0.352;2023-07-09T02:14:09;23;23;
78842;PMS5003;70542;53.774;-0.352;2023-07-09T02:19:48;24;24;
78842;PMS5003;70542;53.774;-0.352;2023-07-09T02:25:26;26;26;
78842;PMS5003;70542;53.774;-0.352;2023-07-09T02:31:13;24;24;
78842;PMS5003;70542;53.774;-0.352;2023-07-09T02:36:52;27;23;
78842;PMS5003;70542;53.774;-0.352;2023-07-09T02:42:31;19;19;
78842;PMS5003;70542;53.774;-0.352;2023-07-09T02:48:09;11;11;
78842;PMS5003;70542;53.774;-0.352;2023-07-09T02:53:48;22;19;
78842;PMS5003;70542;53.774;-0.352;2023-07-09T02:59:27;19;19;
78842;PMS5003;70542;53.774;-0.352;2023-07-09T03:05:06;18;18;
78842;PMS5003;70542;53.774;-0.352;2023-07-09T03:10:45;17;17;
78842;PMS5003;70542;53.774;-0.352;2023-07-09T03:16:26;16;16;
78842;PMS5003;70542;53.774;-0.352;2023-07-09T03:22:05;23;15;
78842;PMS5003;70542;53.774;-0.352;2023-07-09T03:27:46;18;18;
78842;PMS5003;70542;53.774;-0.352;2023-07-09T03:33:30;23;23;
78842;PMS5003;70542;53.774;-0.352;2023-07-09T03:39:08;22;22;
78842;PMS5003;70542;53.774;-0.352;2023-07-09T03:44:48;18;18;
78842;PMS5003;70542;53.774;-0.352;2023-07-09T03:50:26;21;21;
78842;PMS5003;70542;53.774;-0.352;2023-07-09T03:56:05;21;18;
78842;PMS5003;70542;53.774;-0.352;2023-07-09T04:01:43;11;11;
78842;PMS5003;70542;53.774;-0.352;2023-07-09T04:07:22;24;24;
78842;PMS5003;70542;53.774;-0.352;2023-07-09T04:13:01;16;16;
78842;PMS5003;70542;53.774;-0.352;2023-07-09T04:18:39;7;7;
78842;PMS5003;70542;53.774;-0.352;2023-07-09T04:24:18;12;10;
78842;PMS5003;70542;53.774;-0.352;2023-07-09T04:29:57;15;15;
78842;PMS5003;70542;53.774;-0.352;2023-07-09T04:35:36;10;10;
78842;PMS5003;70542;53.774;-0.352;2023-07-09T04:41:15;12;12;
78842;PMS5003;70542;53.774;-0.352;2023-07-09T04:46:54;11;11;
78842;PMS5003;70542;53.774;-0.352;2023-07-09T04:52:33;6;6;
78842;PMS5003;70542;53.774;-0.352;2023-07-09T04:58:12;15;13;
78842;PMS5003;70542;53.774;-0.352;2023-07-09T05:03:51;4;4;
78842;PMS5003;70542;53.774;-0.352;2023-07-09T05:09:29;13;13;
78842;PMS5003;70542;53.774;-0.352;2023-07-09T05:15:08;9;9;
78842;PMS5003;70542;53.774;-0.352;2023-07-09T05:20:48;17;17;
78842;PMS5003;70542;53.774;-0.352;2023-07-09T05:26:26;16;16;
78842;PMS5003;70542;53.774;-0.352;2023-07-09T05:32:05;10;10;
78842;PMS5003;70542;53.774;-0.352;2023-07-09T05:37:45;16;16;
78842;PMS5003;70542;53.774;-0.352;2023-07-09T05:43:38;11;11;
78842;PMS5003;70542;53.774;-0.352;2023-07-09T05:49:17;16;16;
78842;PMS5003;70542;53.774;-0.352;2023-07-09T05:54:57;9;9;
78842;PMS5003;70542;53.774;-0.352;2023-07-09T06:00:42;12;12;
78842;PMS5003;70542;53.774;-0.352;2023-07-09T06:06:21;17;17;
78842;PMS5003;70542;53.774;-0.352;2023-07-09T06:12:00;15;15;
78842;PMS5003;70542;53.774;-0.352;2023-07-09T06:17:39;19;19;
78842;PMS5003;70542;53.774;-0.352;2023-07-09T06:23:19;20;20;
78842;PMS5003;70542;53.774;-0.352;2023-07-09T06:28:58;19;19;
78842;PMS5003;70542;53.774;-0.352;2023-07-09T06:34:38;10;10;
78842;PMS5003;70542;53.774;-0.352;2023-07-09T06:40:16;16;16;
78842;PMS5003;70542;53.774;-0.352;2023-07-09T06:45:56;12;12;
78842;PMS5003;70542;53.774;-0.352;2023-07-09T06:51:43;14;14;
78842;PMS5003;70542;53.774;-0.352;2023-07-09T06:57:26;15;15;
78842;PMS5003;70542;53.774;-0.352;2023-07-09T07:03:10;20;20;
78842;PMS5003;70542;53.774;-0.352;2023-07-09T07:08:49;22;19;
78842;PMS5003;70542;53.774;-0.352;2023-07-09T07:14:28;11;11;
78842;PMS5003;70542;53.774;-0.352;2023-07-09T07:20:07;14;14;
78842;PMS5003;70542;53.774;-0.352;2023-07-09T07:25:48;11;11;
78842;PMS5003;70542;53.774;-0.352;2023-07-09T07:31:32;4;4;
78842;PMS5003;70542;53.774;-0.352;2023-07-09T07:37:18;15;15;
78842;PMS5003;70542;53.774;-0.352;2023-07-09T07:42:57;18;18;
78842;PMS5003;70542;53.774;-0.352;2023-07-09T07:48:36;15;15;
78842;PMS5003;70542;53.774;-0.352;2023-07-09T07:54:15;11;11;
78842;PMS5003;70542;53.774;-0.352;2023-07-09T07:59:53;13;13;
78842;PMS5003;70542;53.774;-0.352;2023-07-09T08:05:32;14;14;
78842;PMS5003;70542;53.774;-0.352;2023-07-09T08:11:16;13;13;
78842;PMS5003;70542;53.774;-0.352;2023-07-09T08:16:56;11;11;
78842;PMS5003;70542;53.774;-0.352;2023-07-09T08:22:44;15;15;
78842;PMS5003;70542;53.774;-0.352;2023-07-09T08:28:28;14;14;
78842;PMS5003;70542;53.774;-0.352;2023-07-09T08:34:07;14;14;
78842;PMS5003;70542;53.774;-0.352;2023-07-09T08:39:46;7;7;
78842;PMS5003;70542;53.774;-0.352;2023-07-09T08:45:27;12;12;
78842;PMS5003;70542;53.774;-0.352;2023-07-09T08:51:13;12;12;
78842;PMS5003;70542;53.774;-0.352;2023-07-09T08:57:00;34;30;
78842;PMS5003;70542;53.774;-0.352;2023-07-09T09:02:49;10;10;
78842;PMS5003;70542;53.774;-0.352;2023-07-09T09:08:33;9;9;
78842;PMS5003;70542;53.774;-0.352;2023-07-09T09:14:25;8;8;
78842;PMS5003;70542;53.774;-0.352;2023-07-09T09:20:09;11;11;
78842;PMS5003;70542;53.774;-0.352;2023-07-09T09:25:55;9;9;
78842;PMS5003;70542;53.774;-0.352;2023-07-09T09:31:36;13;13;
78842;PMS5003;70542;53.774;-0.352;2023-07-09T09:37:18;12;12;
78842;PMS5003;70542;53.774;-0.352;2023-07-09T09:43:09;6;6;
78842;PMS5003;70542;53.774;-0.352;2023-07-09T09:48:58;13;10;
78842;PMS5003;70542;53.774;-0.352;2023-07-09T09:54:39;12;12;
78842;PMS5003;70542;53.774;-0.352;2023-07-09T10:00:21;8;8;
78842;PMS5003;70542;53.774;-0.352;2023-07-09T10:06:11;5;5;
78842;PMS5003;70542;53.774;-0.352;2023-07-09T10:11:56;10;6;
78842;PMS5003;70542;53.774;-0.352;2023-07-09T10:17:39;6;6;
78842;PMS5003;70542;53.774;-0.352;2023-07-09T10:23:27;3;3;
78842;PMS5003;70542;53.774;-0.352;2023-07-09T10:29:21;12;12;
78842;PMS5003;70542;53.774;-0.352;2023-07-09T10:35:13;7;7;
78842;PMS5003;70542;53.774;-0.352;2023-07-09T10:40:56;8;8;
78842;PMS5003;70542;53.774;-0.352;2023-07-09T10:46:37;5;5;
78842;PMS5003;70542;53.774;-0.352;2023-07-09T10:52:20;14;14;
78842;PMS5003;70542;53.774;-0.352;2023-07-09T10:58:04;5;5;
78842;PMS5003;70542;53.774;-0.352;2023-07-09T11:03:49;6;6;
78842;PMS5003;70542;53.774;-0.352;2023-07-09T11:09:31;5;5;
78842;PMS5003;70542;53.774;-0.352;2023-07-09T11:15:12;4;4;
78842;PMS5003;70542;53.774;-0.352;2023-07-09T11:20:55;6;6;
78842;PMS5003;70542;53.774;-0.352;2023-07-09T11:26:46;5;5;
78842;PMS5003;70542;53.774;-0.352;2023-07-09T11:32:30;8;8;
78842;PMS5003;70542;53.774;-0.352;2023-07-09T11:38:12;9;9;
78842;PMS5003;70542;53.774;-0.352;2023-07-09T11:49:45;11;11;
78842;PMS5003;70542;53.774;-0.352;2023-07-09T11:55:31;8;8;
78842;PMS5003;70542;53.774;-0.352;2023-07-09T12:01:19;6;6;
78842;PMS5003;70542;53.774;-0.352;2023-07-09T12:07:01;7;7;
78842;PMS5003;70542;53.774;-0.352;2023-07-09T12:12:41;4;4;
78842;PMS5003;70542;53.774;-0.352;2023-07-09T12:18:20;7;7;
78842;PMS5003;70542;53.774;-0.352;2023-07-09T12:23:59;12;10;
78842;PMS5003;70542;53.774;-0.352;2023-07-09T12:29:38;14;12;
78842;PMS5003;70542;53.774;-0.352;2023-07-09T12:35:16;12;11;
78842;PMS5003;70542;53.774;-0.352;2023-07-09T12:40:55;12;12;
78842;PMS5003;70542;53.774;-0.352;2023-07-09T12:46:38;8;6;
78842;PMS5003;70542;53.774;-0.352;2023-07-09T12:52:17;10;10;
78842;PMS5003;70542;53.774;-0.352;2023-07-09T12:57:57;6;6;
78842;PMS5003;70542;53.774;-0.352;2023-07-09T13:03:37;5;5;
78842;PMS5003;70542;53.774;-0.352;2023-07-09T13:09:18;3;3;
78842;PMS5003;70542;53.774;-0.352;2023-07-09T13:14:59;4;4;
78842;PMS5003;70542;53.774;-0.352;2023-07-09T13:20:39;5;5;
78842;PMS5003;70542;53.774;-0.352;2023-07-09T13:26:19;4;4;
78842;PMS5003;70542;53.774;-0.352;2023-07-09T13:32:02;5;5;
78842;PMS5003;70542;53.774;-0.352;2023-07-09T13:37:46;7;7;
78842;PMS5003;70542;53.774;-0.352;2023-07-09T13:43:27;3;3;
78842;PMS5003;70542;53.774;-0.352;2023-07-09T13:49:09;3;3;
78842;PMS5003;70542;53.774;-0.352;2023-07-09T13:54:49;3;3;
78842;PMS5003;70542;53.774;-0.352;2023-07-09T14:00:31;2;2;
78842;PMS5003;70542;53.774;-0.352;2023-07-09T14:06:16;2;2;
78842;PMS5003;70542;53.774;-0.352;2023-07-09T14:12:24;3;3;
78842;PMS5003;70542;53.774;-0.352;2023-07-09T14:18:04;5;4;
78842;PMS5003;70542;53.774;-0.352;2023-07-09T14:23:48;3;3;
78842;PMS5003;70542;53.774;-0.352;2023-07-09T14:29:27;1;1;
78842;PMS5003;70542;53.774;-0.352;2023-07-09T14:35:10;4;4;
78842;PMS5003;70542;53.774;-0.352;2023-07-09T14:41:04;5;5;
78842;PMS5003;70542;53.774;-0.352;2023-07-09T14:47:03;2;2;
78842;PMS5003;70542;53.774;-0.352;2023-07-09T14:52:51;2;2;
78842;PMS5003;70542;53.774;-0.352;2023-07-09T14:58:30;6;6;
78842;PMS5003;70542;53.774;-0.352;2023-07-09T15:10:03;2;2;
78842;PMS5003;70542;53.774;-0.352;2023-07-09T15:15:43;5;2;
78842;PMS5003;70542;53.774;-0.352;2023-07-09T15:21:21;4;4;
78842;PMS5003;70542;53.774;-0.352;2023-07-09T15:27:00;2;2;
78842;PMS5003;70542;53.774;-0.352;2023-07-09T15:32:39;5;5;
78842;PMS5003;70542;53.774;-0.352;2023-07-09T15:38:25;2;2;
78842;PMS5003;70542;53.774;-0.352;2023-07-09T15:44:19;3;3;
78842;PMS5003;70542;53.774;-0.352;2023-07-09T15:50:13;1;1;
78842;PMS5003;70542;53.774;-0.352;2023-07-09T15:56:11;6;6;
78842;PMS5003;70542;53.774;-0.352;2023-07-09T16:01:54;8;8;
78842;PMS5003;70542;53.774;-0.352;2023-07-09T16:07:48;3;3;
78842;PMS5003;70542;53.774;-0.352;2023-07-09T16:13:53;5;5;
78842;PMS5003;70542;53.774;-0.352;2023-07-09T16:19:32;6;4;
78842;PMS5003;70542;53.774;-0.352;2023-07-09T16:25:13;4;4;
78842;PMS5003;70542;53.774;-0.352;2023-07-09T16:31:07;2;2;
78842;PMS5003;70542;53.774;-0.352;2023-07-09T16:36:46;5;5;
78842;PMS5003;70542;53.774;-0.352;2023-07-09T16:42:24;3;3;
78842;PMS5003;70542;53.774;-0.352;2023-07-09T16:48:04;1;1;
78842;PMS5003;70542;53.774;-0.352;2023-07-09T16:53:58;1;1;
78842;PMS5003;70542;53.774;-0.352;2023-07-09T16:59:36;4;4;
78842;PMS5003;70542;53.774;-0.352;2023-07-09T17:05:15;3;3;
78842;PMS5003;70542;53.774;-0.352;2023-07-09T17:10:53;0;0;
78842;PMS5003;70542;53.774;-0.352;2023-07-09T17:16:33;2;2;
78842;PMS5003;70542;53.774;-0.352;2023-07-09T17:22:15;3;3;
78842;PMS5003;70542;53.774;-0.352;2023-07-09T17:27:56;8;5;
78842;PMS5003;70542;53.774;-0.352;2023-07-09T17:33:36;2;2;
78842;PMS5003;70542;53.774;-0.352;2023-07-09T17:39:16;2;2;
78842;PMS5003;70542;53.774;-0.352;2023-07-09T17:44:56;3;3;
78842;PMS5003;70542;53.774;-0.352;2023-07-09T17:50:34;3;3;
78842;PMS5003;70542;53.774;-0.352;2023-07-09T17:56:16;4;4;
78842;PMS5003;70542;53.774;-0.352;2023-07-09T18:02:00;2;2;
78842;PMS5003;70542;53.774;-0.352;2023-07-09T18:07:46;3;3;
78842;PMS5003;70542;53.774;-0.352;2023-07-09T18:13:25;8;4;
78842;PMS5003;70542;53.774;-0.352;2023-07-09T18:19:07;1;1;
78842;PMS5003;70542;53.774;-0.352;2023-07-09T18:24:48;2;2;
78842;PMS5003;70542;53.774;-0.352;2023-07-09T18:30:27;2;2;
78842;PMS5003;70542;53.774;-0.352;2023-07-09T18:36:08;2;2;
78842;PMS5003;70542;53.774;-0.352;2023-07-09T18:41:47;4;4;
78842;PMS5003;70542;53.774;-0.352;2023-07-09T18:47:26;2;2;
78842;PMS5003;70542;53.774;-0.352;2023-07-09T18:53:04;2;2;
78842;PMS5003;70542;53.774;-0.352;2023-07-09T18:58:47;1;1;
78842;PMS5003;70542;53.774;-0.352;2023-07-09T19:04:26;1;1;
78842;PMS5003;70542;53.774;-0.352;2023-07-09T19:10:08;2;2;
78842;PMS5003;70542;53.774;-0.352;2023-07-09T19:15:55;3;3;
78842;PMS5003;70542;53.774;-0.352;2023-07-09T19:21:33;3;3;
78842;PMS5003;70542;53.774;-0.352;2023-07-09T19:27:12;1;1;
78842;PMS5003;70542;53.774;-0.352;2023-07-09T19:33:01;2;1;
78842;PMS5003;70542;53.774;-0.352;2023-07-09T19:38:40;3;3;
78842;PMS5003;70542;53.774;-0.352;2023-07-09T19:44:21;2;2;
78842;PMS5003;70542;53.774;-0.352;2023-07-09T19:50:11;2;2;
78842;PMS5003;70542;53.774;-0.352;2023-07-09T19:55:58;3;3;
78842;PMS5003;70542;53.774;-0.352;2023-07-09T20:01:49;2;2;
78842;PMS5003;70542;53.774;-0.352;2023-07-09T20:07:27;1;1;
78842;PMS5003;70542;53.774;-0.352;2023-07-09T20:13:11;3;3;
78842;PMS5003;70542;53.774;-0.352;2023-07-09T20:18:57;7;7;
78842;PMS5003;70542;53.774;-0.352;2023-07-09T20:24:39;10;10;
78842;PMS5003;70542;53.774;-0.352;2023-07-09T20:30:33;4;4;
78842;PMS5003;70542;53.774;-0.352;2023-07-09T20:36:24;9;9;
78842;PMS5003;70542;53.774;-0.352;2023-07-09T20:42:08;8;5;
78842;PMS5003;70542;53.774;-0.352;2023-07-09T20:47:49;1;1;
78842;PMS5003;70542;53.774;-0.352;2023-07-09T20:53:29;7;7;
78842;PMS5003;70542;53.774;-0.352;2023-07-09T20:59:10;5;5;
78842;PMS5003;70542;53.774;-0.352;2023-07-09T21:04:52;1;1;
78842;PMS5003;70542;53.774;-0.352;2023-07-09T21:10:37;9;6;
78842;PMS5003;70542;53.774;-0.352;2023-07-09T21:16:17;10;10;
78842;PMS5003;70542;53.774;-0.352;2023-07-09T21:21:57;10;10;
78842;PMS5003;70542;53.774;-0.352;2023-07-09T21:27:36;8;8;
78842;PMS5003;70542;53.774;-0.352;2023-07-09T21:33:15;4;4;
78842;PMS5003;70542;53.774;-0.352;2023-07-09T21:38:56;16;13;
78842;PMS5003;70542;53.774;-0.352;2023-07-09T21:44:39;11;11;
78842;PMS5003;70542;53.774;-0.352;2023-07-09T21:50:21;8;8;
78842;PMS5003;70542;53.774;-0.352;2023-07-09T21:56:00;4;4;
78842;PMS5003;70542;53.774;-0.352;2023-07-09T22:01:43;3;3;
78842;PMS5003;70542;53.774;-0.352;2023-07-09T22:07:22;3;3;
78842;PMS5003;70542;53.774;-0.352;2023-07-09T22:13:08;3;3;
78842;PMS5003;70542;53.774;-0.352;2023-07-09T22:18:49;3;3;
78842;PMS5003;70542;53.774;-0.352;2023-07-09T22:24:28;5;5;
78842;PMS5003;70542;53.774;-0.352;2023-07-09T22:30:07;22;8;
78842;PMS5003;70542;53.774;-0.352;2023-07-09T22:35:46;4;4;
78842;PMS5003;70542;53.774;-0.352;2023-07-09T22:41:34;2;2;
78842;PMS5003;70542;53.774;-0.352;2023-07-09T22:47:18;3;3;
78842;PMS5003;70542;53.774;-0.352;2023-07-09T22:52:58;2;2;
78842;PMS5003;70542;53.774;-0.352;2023-07-09T22:58:37;2;2;
78842;PMS5003;70542;53.774;-0.352;2023-07-09T23:04:20;3;3;
78842;PMS5003;70542;53.774;-0.352;2023-07-09T23:09:58;3;3;
78842;PMS5003;70542;53.774;-0.352;2023-07-09T23:15:37;2;2;
78842;PMS5003;70542;53.774;-0.352;2023-07-09T23:21:17;6;6;
78842;PMS5003;70542;53.774;-0.352;2023-07-09T23:27:02;6;6;
78842;PMS5003;70542;53.774;-0.352;2023-07-09T23:32:42;3;3;
78842;PMS5003;70542;53.774;-0.352;2023-07-09T23:38:26;6;6;
78842;PMS5003;70542;53.774;-0.352;2023-07-09T23:44:06;7;7;
78842;PMS5003;70542;53.774;-0.352;2023-07-09T23:49:52;16;12;
78842;PMS5003;70542;53.774;-0.352;2023-07-09T23:55:31;6;6;
